PWSweather.com
Personal Weather Stations
Station Observations
KNJEWING3
Ewing, NJ 08638

Ewing, NJ 08638

Lat: 40.25193, Lon: -74.77511

Elevation: 106

Station Type: Oregon Scientific WMR968 / SRS100 Solar Radiation Shield. Rain Data At www.cocorahs.org (NJ-MC-11)

Latest ConditionsUpdated 1:17:09 AM EDT Monday, May 25, 2015
Currently Today's Max Today's Min Today's Average
Temperature 60.7°F15.9°C 63.2°F17.3°C 60.7°F15.9°C 61.9°F16.6°C
Dew Point 37.5°F3.1°C 37.5°F3.1°C 36.4°F2.4°C 37.0°F2.8°C
Winds Calm Calm Calm SSWCalm SSW - Calm Calm
Wind Gusts -- -- - -
Humidity 42% 42% 38% 39%
Pressure 31.00 in1049.8 mb 31.00 in1049.8 mb 31.00 in1049.8 mb -
Hour Temp Dew Point Humidity Winds Wind Gusts Pressure Precip Precip Rate Daily Precip Total
01:17 AM 60.7°F15.9°C 37.5°F3.1°C 42% Calm Calm -- 31.00 in1049.8 mb 0.00 in0.0 mm 0.00 in0.0 mm 0.00 in0.0 mm
01:16 AM 60.7°F15.9°C 37.5°F3.1°C 42% Calm Calm -- 31.00 in1049.8 mb 0.00 in0.0 mm 0.00 in0.0 mm 0.00 in0.0 mm
01:15 AM 60.7°F15.9°C 36.9°F2.7°C 41% Calm Calm -- 31.00 in1049.8 mb 0.00 in0.0 mm 0.00 in0.0 mm 0.00 in0.0 mm
01:14 AM 60.7°F15.9°C 36.9°F2.7°C 41% Calm Calm -- 31.00 in1049.8 mb 0.00 in0.0 mm 0.00 in0.0 mm 0.00 in0.0 mm
01:12 AM 60.9°F16.1°C 37.1°F2.8°C 41% Calm Calm -- 31.00 in1049.8 mb 0.00 in0.0 mm 0.00 in0.0 mm 0.00 in0.0 mm
01:11 AM 61.1°F16.2°C 37.2°F2.9°C 41% Calm Calm -- 31.00 in1049.8 mb 0.00 in0.0 mm 0.00 in0.0 mm 0.00 in0.0 mm
01:10 AM 61.1°F16.2°C 37.2°F2.9°C 41% Calm Calm -- 31.00 in1049.8 mb 0.00 in0.0 mm 0.00 in0.0 mm 0.00 in0.0 mm
01:09 AM 61.1°F16.2°C 37.2°F2.9°C 41% Calm Calm -- 31.00 in1049.8 mb 0.00 in0.0 mm 0.00 in0.0 mm 0.00 in0.0 mm
01:08 AM 61.1°F16.2°C 37.2°F2.9°C 41% Calm Calm -- 31.00 in1049.8 mb 0.00 in0.0 mm 0.00 in0.0 mm 0.00 in0.0 mm
01:07 AM 61.1°F16.2°C 37.2°F2.9°C 41% Calm Calm -- 31.00 in1049.8 mb 0.00 in0.0 mm 0.00 in0.0 mm 0.00 in0.0 mm
01:06 AM 61.1°F16.2°C 37.2°F2.9°C 41% Calm Calm -- 31.00 in1049.8 mb 0.00 in0.0 mm 0.00 in0.0 mm 0.00 in0.0 mm
01:05 AM 61.4°F16.3°C 37.5°F3.1°C 41% Calm Calm -- 31.00 in1049.8 mb 0.00 in0.0 mm 0.00 in0.0 mm 0.00 in0.0 mm
01:04 AM 61.4°F16.3°C 37.5°F3.1°C 41% Calm Calm -- 31.00 in1049.8 mb 0.00 in0.0 mm 0.00 in0.0 mm 0.00 in0.0 mm
01:03 AM 61.4°F16.3°C 37.5°F3.1°C 41% Calm Calm -- 31.00 in1049.8 mb 0.00 in0.0 mm 0.00 in0.0 mm 0.00 in0.0 mm
01:02 AM 61.4°F16.3°C 37.5°F3.1°C 41% Calm Calm -- 31.00 in1049.8 mb 0.00 in0.0 mm 0.00 in0.0 mm 0.00 in0.0 mm
01:01 AM 61.4°F16.3°C 37.5°F3.1°C 41% Calm Calm -- 31.00 in1049.8 mb 0.00 in0.0 mm 0.00 in0.0 mm 0.00 in0.0 mm
01:00 AM 61.4°F16.3°C 37.5°F3.1°C 41% Calm Calm -- 31.00 in1049.8 mb 0.00 in0.0 mm 0.00 in0.0 mm 0.00 in0.0 mm
12:58 AM 61.4°F16.3°C 36.9°F2.7°C 40% Calm Calm -- 31.00 in1049.8 mb 0.00 in0.0 mm 0.00 in0.0 mm 0.00 in0.0 mm
12:57 AM 61.4°F16.3°C 36.9°F2.7°C 40% Calm Calm -- 31.00 in1049.8 mb 0.00 in0.0 mm 0.00 in0.0 mm 0.00 in0.0 mm
12:56 AM 61.6°F16.4°C 37.1°F2.8°C 40% Calm Calm -- 31.00 in1049.8 mb 0.00 in0.0 mm 0.00 in0.0 mm 0.00 in0.0 mm
12:55 AM 61.6°F16.4°C 37.1°F2.8°C 40% Calm Calm -- 31.00 in1049.8 mb 0.00 in0.0 mm 0.00 in0.0 mm 0.00 in0.0 mm
12:54 AM 61.6°F16.4°C 37.1°F2.8°C 40% Calm Calm -- 31.00 in1049.8 mb 0.00 in0.0 mm 0.00 in0.0 mm 0.00 in0.0 mm
12:53 AM 61.6°F16.4°C 37.1°F2.8°C 40% Calm Calm -- 31.00 in1049.8 mb 0.00 in0.0 mm 0.00 in0.0 mm 0.00 in0.0 mm
12:52 AM 61.6°F16.4°C 37.1°F2.8°C 40% Calm Calm -- 31.00 in1049.8 mb 0.00 in0.0 mm 0.00 in0.0 mm 0.00 in0.0 mm
12:51 AM 61.6°F16.4°C 37.1°F2.8°C 40% Calm Calm -- 31.00 in1049.8 mb 0.00 in0.0 mm 0.00 in0.0 mm 0.00 in0.0 mm
12:50 AM 61.6°F16.4°C 37.1°F2.8°C 40% Calm Calm -- 31.00 in1049.8 mb 0.00 in0.0 mm 0.00 in0.0 mm 0.00 in0.0 mm
12:49 AM 61.6°F16.4°C 37.1°F2.8°C 40% Calm Calm -- 31.00 in1049.8 mb 0.00 in0.0 mm 0.00 in0.0 mm 0.00 in0.0 mm
12:47 AM 61.6°F16.4°C 36.4°F2.4°C 39% Calm Calm -- 31.00 in1049.8 mb 0.00 in0.0 mm 0.00 in0.0 mm 0.00 in0.0 mm
12:46 AM 61.6°F16.4°C 36.4°F2.4°C 39% Calm Calm -- 31.00 in1049.8 mb 0.00 in0.0 mm 0.00 in0.0 mm 0.00 in0.0 mm
12:45 AM 61.6°F16.4°C 36.4°F2.4°C 39% Calm Calm -- 31.00 in1049.8 mb 0.00 in0.0 mm 0.00 in0.0 mm 0.00 in0.0 mm
12:44 AM 61.6°F16.4°C 36.4°F2.4°C 39% Calm Calm -- 31.00 in1049.8 mb 0.00 in0.0 mm 0.00 in0.0 mm 0.00 in0.0 mm
12:43 AM 61.6°F16.4°C 36.4°F2.4°C 39% Calm Calm -- 31.00 in1049.8 mb 0.00 in0.0 mm 0.00 in0.0 mm 0.00 in0.0 mm
12:42 AM 61.6°F16.4°C 36.4°F2.4°C 39% Calm Calm -- 31.00 in1049.8 mb 0.00 in0.0 mm 0.00 in0.0 mm 0.00 in0.0 mm
12:40 AM 61.8°F16.6°C 36.6°F2.6°C 39% Calm Calm -- 31.00 in1049.8 mb 0.00 in0.0 mm 0.00 in0.0 mm 0.00 in0.0 mm
12:39 AM 62.0°F16.7°C 36.8°F2.7°C 39% Calm Calm -- 31.00 in1049.8 mb 0.00 in0.0 mm 0.00 in0.0 mm 0.00 in0.0 mm
12:38 AM 62.0°F16.7°C 36.8°F2.7°C 39% Calm Calm -- 31.00 in1049.8 mb 0.00 in0.0 mm 0.00 in0.0 mm 0.00 in0.0 mm
12:37 AM 62.0°F16.7°C 36.8°F2.7°C 39% Calm Calm -- 31.00 in1049.8 mb 0.00 in0.0 mm 0.00 in0.0 mm 0.00 in0.0 mm
12:36 AM 62.0°F16.7°C 36.8°F2.7°C 39% Calm Calm -- 31.00 in1049.8 mb 0.00 in0.0 mm 0.00 in0.0 mm 0.00 in0.0 mm
12:35 AM 62.0°F16.7°C 36.8°F2.7°C 39% Calm Calm -- 31.00 in1049.8 mb 0.00 in0.0 mm 0.00 in0.0 mm 0.00 in0.0 mm
12:34 AM 62.0°F16.7°C 36.8°F2.7°C 39% Calm Calm -- 31.00 in1049.8 mb 0.00 in0.0 mm 0.00 in0.0 mm 0.00 in0.0 mm
12:33 AM 62.0°F16.7°C 36.8°F2.7°C 39% Calm Calm -- 31.00 in1049.8 mb 0.00 in0.0 mm 0.00 in0.0 mm 0.00 in0.0 mm
12:32 AM 62.0°F16.7°C 36.8°F2.7°C 39% Calm Calm -- 31.00 in1049.8 mb 0.00 in0.0 mm 0.00 in0.0 mm 0.00 in0.0 mm
12:31 AM 62.0°F16.7°C 36.8°F2.7°C 39% Calm Calm -- 31.00 in1049.8 mb 0.00 in0.0 mm 0.00 in0.0 mm 0.00 in0.0 mm
12:30 AM 62.1°F16.7°C 36.9°F2.7°C 39% Calm Calm -- 31.00 in1049.8 mb 0.00 in0.0 mm 0.00 in0.0 mm 0.00 in0.0 mm
12:29 AM 62.1°F16.7°C 36.9°F2.7°C 39% Calm Calm -- 31.00 in1049.8 mb 0.00 in0.0 mm 0.00 in0.0 mm 0.00 in0.0 mm
12:28 AM 62.1°F16.7°C 36.9°F2.7°C 39% Calm Calm -- 31.00 in1049.8 mb 0.00 in0.0 mm 0.00 in0.0 mm 0.00 in0.0 mm
12:27 AM 62.1°F16.7°C 36.9°F2.7°C 39% Calm Calm -- 31.00 in1049.8 mb 0.00 in0.0 mm 0.00 in0.0 mm 0.00 in0.0 mm
12:26 AM 62.1°F16.7°C 36.9°F2.7°C 39% Calm Calm -- 31.00 in1049.8 mb 0.00 in0.0 mm 0.00 in0.0 mm 0.00 in0.0 mm
12:25 AM 62.1°F16.7°C 36.9°F2.7°C 39% Calm Calm -- 31.00 in1049.8 mb 0.00 in0.0 mm 0.00 in0.0 mm 0.00 in0.0 mm
12:24 AM 62.3°F16.8°C 37.1°F2.8°C 39% Calm Calm -- 31.00 in1049.8 mb 0.00 in0.0 mm 0.00 in0.0 mm 0.00 in0.0 mm
12:23 AM 62.3°F16.8°C 37.1°F2.8°C 39% Calm Calm -- 31.00 in1049.8 mb 0.00 in0.0 mm 0.00 in0.0 mm 0.00 in0.0 mm
12:22 AM 62.5°F16.9°C 37.2°F2.9°C 39% Calm Calm -- 31.00 in1049.8 mb 0.00 in0.0 mm 0.00 in0.0 mm 0.00 in0.0 mm
12:21 AM 62.5°F16.9°C 37.2°F2.9°C 39% Calm Calm -- 31.00 in1049.8 mb 0.00 in0.0 mm 0.00 in0.0 mm 0.00 in0.0 mm
12:19 AM 62.5°F16.9°C 37.2°F2.9°C 39% Calm Calm -- 31.00 in1049.8 mb 0.00 in0.0 mm 0.00 in0.0 mm 0.00 in0.0 mm
12:18 AM 62.5°F16.9°C 37.2°F2.9°C 39% Calm Calm -- 31.00 in1049.8 mb 0.00 in0.0 mm 0.00 in0.0 mm 0.00 in0.0 mm
12:16 AM 62.5°F16.9°C 37.2°F2.9°C 39% Calm Calm -- 31.00 in1049.8 mb 0.00 in0.0 mm 0.00 in0.0 mm 0.00 in0.0 mm
12:15 AM 62.5°F16.9°C 37.2°F2.9°C 39% Calm Calm -- 31.00 in1049.8 mb 0.00 in0.0 mm 0.00 in0.0 mm 0.00 in0.0 mm
12:14 AM 62.5°F16.9°C 37.2°F2.9°C 39% Calm Calm -- 31.00 in1049.8 mb 0.00 in0.0 mm 0.00 in0.0 mm 0.00 in0.0 mm
12:13 AM 62.7°F17.1°C 36.7°F2.6°C 38% Calm Calm -- 31.00 in1049.8 mb 0.00 in0.0 mm 0.00 in0.0 mm 0.00 in0.0 mm
12:12 AM 62.7°F17.1°C 36.7°F2.6°C 38% Calm Calm -- 31.00 in1049.8 mb 0.00 in0.0 mm 0.00 in0.0 mm 0.00 in0.0 mm
12:11 AM 62.7°F17.1°C 36.7°F2.6°C 38% Calm Calm -- 31.00 in1049.8 mb 0.00 in0.0 mm 0.00 in0.0 mm 0.00 in0.0 mm
12:10 AM 62.9°F17.2°C 36.9°F2.7°C 38% Calm Calm -- 31.00 in1049.8 mb 0.00 in0.0 mm 0.00 in0.0 mm 0.00 in0.0 mm
12:09 AM 62.9°F17.2°C 36.9°F2.7°C 38% Calm Calm -- 31.00 in1049.8 mb 0.00 in0.0 mm 0.00 in0.0 mm 0.00 in0.0 mm
12:08 AM 62.9°F17.2°C 36.9°F2.7°C 38% Calm Calm -- 31.00 in1049.8 mb 0.00 in0.0 mm 0.00 in0.0 mm 0.00 in0.0 mm
12:07 AM 62.9°F17.2°C 36.9°F2.7°C 38% Calm Calm -- 31.00 in1049.8 mb 0.00 in0.0 mm 0.00 in0.0 mm 0.00 in0.0 mm
12:05 AM 62.9°F17.2°C 36.9°F2.7°C 38% Calm Calm -- 31.00 in1049.8 mb 0.00 in0.0 mm 0.00 in0.0 mm 0.00 in0.0 mm
12:04 AM 63.0°F17.2°C 37.1°F2.8°C 38% Calm Calm -- 31.00 in1049.8 mb 0.00 in0.0 mm 0.00 in0.0 mm 0.00 in0.0 mm
12:03 AM 63.0°F17.2°C 37.1°F2.8°C 38% Calm Calm -- 31.00 in1049.8 mb 0.00 in0.0 mm 0.00 in0.0 mm 0.00 in0.0 mm
12:01 AM 63.2°F17.3°C 37.2°F2.9°C 38% Calm Calm -- 31.00 in1049.8 mb 0.00 in0.0 mm 0.00 in0.0 mm 0.00 in0.0 mm
12:00 AM 63.2°F17.3°C 37.2°F2.9°C 38% Calm Calm -- 31.00 in1049.8 mb 0.00 in0.0 mm 0.00 in0.0 mm 0.00 in0.0 mm